Time;durP1;ratioP1;P1;durP2;ratioP2;P2;SDS_P1;SDS_P2;PMS_P1;PMS_P2;Temp;Humidity;BMP_temperature;BMP_pressure;BME280_temperature;BME280_humidity;BME280_pressure;Samples;Min_cycle;Max_cycle;Signal;HPM_P1;HPM_P2
2022/08/23 04:07:50;;;;;;;11.05;6.93;;;;;;;18.56;100.00;99992.78;6581666;27;20416;-86
2022/08/23 04:10:55;;;;;;;15.32;7.37;;;;;;;18.57;100.00;99999.94;6579457;27;34348;-86
2022/08/23 04:13:58;;;;;;;11.20;7.00;;;;;;;18.59;100.00;100007.84;6587559;27;34993;-86
2022/08/23 04:17:01;;;;;;;12.82;6.90;;;;;;;18.64;100.00;100007.97;6564030;27;32056;-86
2022/08/23 04:20:05;;;;;;;16.37;8.57;;;;;;;18.67;100.00;100012.94;6579913;27;34318;-86
2022/08/23 04:23:09;;;;;;;14.10;8.35;;;;;;;18.71;100.00;100005.91;6579627;27;33722;-86
2022/08/23 04:26:13;;;;;;;18.23;8.88;;;;;;;18.77;100.00;100004.16;6579345;27;33976;-86
2022/08/23 04:29:16;;;;;;;18.92;9.57;;;;;;;18.88;100.00;100003.31;6579132;27;34562;-87
2022/08/23 04:32:36;;;;;;;19.65;10.07;;;;;;;18.89;100.00;100004.13;6578669;27;33880;-86
2022/08/23 04:35:42;;;;;;;19.10;9.48;;;;;;;18.92;100.00;100000.91;6579124;27;34656;-87
2022/08/23 04:38:45;;;;;;;20.23;9.98;;;;;;;18.95;100.00;100006.75;6580605;27;34917;-86
2022/08/23 04:45:16;;;;;;;18.27;10.25;;;;;;;18.96;100.00;100016.56;6579792;27;33758;-88
2022/08/23 04:48:19;;;;;;;14.40;8.40;;;;;;;18.99;100.00;100012.53;6579248;27;34245;-86
2022/08/23 04:51:22;;;;;;;18.95;9.27;;;;;;;19.02;100.00;100023.78;6579784;27;34393;-87
2022/08/23 04:54:25;;;;;;;22.50;9.98;;;;;;;19.07;100.00;100025.81;6581607;27;34002;-86
2022/08/23 04:57:29;;;;;;;17.80;8.98;;;;;;;19.10;100.00;100025.31;6573924;27;32492;-85
2022/08/23 05:00:32;;;;;;;17.42;9.25;;;;;;;19.13;100.00;100030.28;6583001;27;33736;-85
2022/08/23 05:03:36;;;;;;;16.67;9.00;;;;;;;19.15;100.00;100033.59;6559896;27;32367;-85
2022/08/23 05:06:40;;;;;;;19.95;9.65;;;;;;;19.20;100.00;100033.69;6580490;27;34411;-85
2022/08/23 05:09:42;;;;;;;17.55;8.82;;;;;;;19.25;100.00;100041.97;6580138;27;34710;-85
2022/08/23 05:12:47;;;;;;;19.08;9.07;;;;;;;19.30;100.00;100037.69;6580704;27;35099;-85
2022/08/23 05:15:54;;;;;;;14.35;8.82;;;;;;;19.39;100.00;100042.53;6584226;27;34669;-84
2022/08/23 05:18:59;;;;;;;17.00;9.02;;;;;;;19.47;100.00;100038.56;6580627;27;34623;-85
2022/08/23 05:22:02;;;;;;;17.90;9.73;;;;;;;19.53;100.00;100034.03;6582430;27;34261;-85
2022/08/23 05:25:08;;;;;;;18.48;9.88;;;;;;;19.57;100.00;100035.19;6579496;27;34661;-85
2022/08/23 05:28:12;;;;;;;20.33;10.20;;;;;;;19.62;100.00;100036.09;6580465;27;34431;-84
2022/08/23 05:31:19;;;;;;;17.15;8.88;;;;;;;19.65;100.00;100041.09;6580696;27;33916;-84
2022/08/23 05:34:24;;;;;;;18.15;9.02;;;;;;;19.67;100.00;100052.62;6581678;27;34032;-84
2022/08/23 05:37:47;;;;;;;18.05;9.05;;;;;;;19.72;100.00;100056.53;6592975;27;35055;-84
2022/08/23 05:41:10;;;;;;;16.90;8.30;;;;;;;19.75;100.00;100045.13;6581075;27;34087;-84
2022/08/23 05:44:33;;;;;;;18.45;9.32;;;;;;;19.72;100.00;100059.25;6579460;27;35249;-84
2022/08/23 05:47:58;;;;;;;16.05;8.75;;;;;;;19.75;100.00;100065.06;6578910;27;34216;-88
2022/08/23 05:51:27;;;;;;;14.70;8.57;;;;;;;19.80;100.00;100072.50;6583191;27;35166;-83
2022/08/23 05:54:49;;;;;;;19.52;9.80;;;;;;;19.82;100.00;100073.91;6585962;27;35014;-84
2022/08/23 05:58:14;;;;;;;19.30;9.95;;;;;;;19.85;100.00;100076.16;6586792;27;34222;-84
2022/08/23 06:01:38;;;;;;;17.50;8.52;;;;;;;19.84;100.00;100084.59;6585298;27;35060;-84
2022/08/23 06:05:01;;;;;;;16.60;8.30;;;;;;;19.93;100.00;100085.84;6584439;27;34065;-84
2022/08/23 06:08:25;;;;;;;16.48;8.77;;;;;;;19.99;100.00;100092.25;6582962;27;34022;-84
2022/08/23 06:11:48;;;;;;;16.17;8.63;;;;;;;20.01;100.00;100085.47;6579801;27;35607;-88
2022/08/23 06:15:10;;;;;;;15.15;7.95;;;;;;;20.17;100.00;100100.19;6585489;27;34082;-85
2022/08/23 06:18:33;;;;;;;15.93;8.05;;;;;;;20.27;100.00;100103.12;6580508;27;34263;-84
2022/08/23 06:21:37;;;;;;;14.95;7.72;;;;;;;20.27;100.00;100114.03;6581203;27;34256;-84
2022/08/23 06:24:40;;;;;;;14.38;8.30;;;;;;;20.33;100.00;100112.22;6589249;27;34374;-84
2022/08/23 06:27:44;;;;;;;12.25;7.15;;;;;;;20.23;100.00;100112.03;6588499;27;34298;-84
2022/08/23 06:30:49;;;;;;;15.90;7.78;;;;;;;20.23;100.00;100110.12;6560384;27;32446;-84
2022/08/23 06:33:52;;;;;;;13.62;7.68;;;;;;;20.26;100.00;100115.09;6580995;27;34061;-84
2022/08/23 06:36:59;;;;;;;13.62;7.85;;;;;;;20.16;100.00;100114.94;6581595;27;34490;-84
2022/08/23 06:40:08;;;;;;;13.65;7.95;;;;;;;20.22;100.00;100124.87;6560941;27;34018;-84
2022/08/23 06:43:11;;;;;;;15.85;8.13;;;;;;;20.29;100.00;100122.81;6560391;27;32412;-84
2022/08/23 06:46:26;;;;;;;13.95;8.15;;;;;;;20.32;100.00;100118.75;6580175;27;33993;-84
2022/08/23 06:49:31;;;;;;;15.02;8.27;;;;;;;20.49;100.00;100118.75;6582954;27;34798;-84
2022/08/23 06:52:35;;;;;;;13.70;8.07;;;;;;;20.69;100.00;100118.28;6582580;27;34553;-84
2022/08/23 06:55:40;;;;;;;15.68;8.10;;;;;;;20.85;100.00;100120.12;6579884;27;34100;-84
2022/08/23 06:58:44;;;;;;;14.18;7.40;;;;;;;20.83;100.00;100125.06;6579548;27;33647;-84
2022/08/23 07:01:49;;;;;;;13.60;7.90;;;;;;;21.03;100.00;100128.06;6578816;27;34916;-84
2022/08/23 07:04:54;;;;;;;15.02;7.12;;;;;;;21.06;100.00;100124.81;6579806;27;34365;-84
2022/08/23 07:07:58;;;;;;;15.00;8.73;;;;;;;21.02;100.00;100129.13;6567065;27;32449;-84
2022/08/23 07:11:00;;;;;;;12.77;7.18;;;;;;;21.15;100.00;100136.16;6580128;27;33975;-84
2022/08/23 07:14:07;;;;;;;13.77;7.68;;;;;;;21.13;99.58;100134.75;6581151;27;34611;-84
2022/08/23 07:17:10;;;;;;;14.07;7.53;;;;;;;21.17;99.63;100135.91;6580048;27;33692;-84
2022/08/23 07:20:13;;;;;;;13.90;6.97;;;;;;;21.21;99.81;100142.53;6580125;27;34936;-84
2022/08/23 07:23:18;;;;;;;8.95;6.25;;;;;;;21.24;98.43;100147.50;6561951;27;32561;-84
2022/08/23 07:26:23;;;;;;;14.07;7.53;;;;;;;21.32;98.56;100147.03;6586348;27;33822;-84
2022/08/23 07:29:28;;;;;;;11.15;6.75;;;;;;;21.54;98.58;100143.53;6561209;27;33036;-87
2022/08/23 07:32:32;;;;;;;10.00;6.50;;;;;;;21.57;95.33;100137.53;6580259;27;33950;-88
2022/08/23 07:35:37;;;;;;;10.43;6.97;;;;;;;21.89;93.50;100145.81;6580623;27;34152;-88
2022/08/23 07:38:43;;;;;;;11.95;6.80;;;;;;;22.24;92.34;100139.06;6580736;27;33903;-84
2022/08/23 07:41:47;;;;;;;10.95;6.93;;;;;;;22.42;88.50;100142.22;6581985;27;34762;-84
2022/08/23 07:44:52;;;;;;;9.60;6.40;;;;;;;22.67;88.87;100146.28;6581034;27;34591;-84
2022/08/23 07:47:55;;;;;;;9.40;6.15;;;;;;;22.97;83.75;100144.84;6562815;27;33413;-84
2022/08/23 07:51:02;;;;;;;9.25;5.70;;;;;;;23.10;82.04;100147.09;6583102;27;34174;-84
2022/08/23 07:54:07;;;;;;;8.40;5.78;;;;;;;23.11;82.96;100146.03;6585794;27;35093;-84
2022/08/23 07:57:11;;;;;;;11.20;6.82;;;;;;;23.25;81.88;100146.34;6584708;27;34064;-84
2022/08/23 08:00:15;;;;;;;10.15;6.62;;;;;;;23.36;82.48;100144.47;6567952;27;32701;-84
2022/08/23 08:03:20;;;;;;;10.30;6.65;;;;;;;23.19;81.17;100144.66;6565331;27;32301;-85
2022/08/23 08:06:29;;;;;;;11.00;6.60;;;;;;;23.20;80.88;100138.09;6588547;27;34960;-84
2022/08/23 08:09:32;;;;;;;10.23;6.50;;;;;;;23.05;84.57;100141.59;6593486;27;35432;-85
2022/08/23 08:12:35;;;;;;;10.60;6.65;;;;;;;23.45;80.79;100140.12;6593185;27;34776;-85
2022/08/23 08:15:40;;;;;;;10.80;6.50;;;;;;;23.65;81.72;100136.63;6584487;27;34745;-85
2022/08/23 08:18:44;;;;;;;8.32;6.00;;;;;;;23.91;77.46;100137.53;6562095;27;32228;-86
2022/08/23 08:21:54;;;;;;;8.45;5.75;;;;;;;23.75;78.98;100140.25;6561112;27;33769;-85
2022/08/23 08:24:57;;;;;;;7.22;5.30;;;;;;;23.72;77.17;100146.31;6579542;27;34208;-86
2022/08/23 08:28:01;;;;;;;8.45;5.43;;;;;;;23.79;77.70;100154.28;6580861;27;34132;-85
2022/08/23 08:31:04;;;;;;;7.07;4.85;;;;;;;23.80;77.58;100157.84;6578755;27;33549;-86
2022/08/23 08:34:08;;;;;;;9.05;5.80;;;;;;;23.86;79.35;100159.50;6578526;27;33736;-86
2022/08/23 08:37:11;;;;;;;12.18;5.70;;;;;;;23.89;77.00;100167.22;6578583;27;34503;-85
2022/08/23 08:40:23;;;;;;;9.60;5.90;;;;;;;23.61;76.49;100171.25;6558848;27;33083;-86
2022/08/23 08:43:52;;;;;;;8.48;5.68;;;;;;;23.42;78.99;100174.44;6562164;27;33573;-85
2022/08/23 08:46:58;;;;;;;7.28;4.95;;;;;;;23.48;78.28;100178.03;6581369;27;34168;-85
2022/08/23 08:50:04;;;;;;;8.57;5.20;;;;;;;23.56;76.19;100173.97;6582146;27;34910;-85
2022/08/23 08:53:17;;;;;;;8.15;5.65;;;;;;;23.68;77.08;100177.31;6561373;27;32729;-85
2022/08/23 08:56:27;;;;;;;9.05;6.07;;;;;;;23.87;75.94;100166.66;6560640;27;33637;-86
2022/08/23 09:00:05;;;;;;;8.32;5.55;;;;;;;23.99;74.67;100178.25;6580500;27;33874;-86
2022/08/23 09:03:20;;;;;;;9.90;4.87;;;;;;;24.09;75.58;100172.75;6583784;27;33501;-85
2022/08/23 09:06:29;;;;;;;6.35;3.97;;;;;;;24.39;71.60;100171.12;6584213;27;33846;-85
2022/08/23 09:09:35;;;;;;;5.57;4.00;;;;;;;24.78;69.06;100176.13;6584239;27;34015;-86
2022/08/23 09:12:56;;;;;;;6.00;3.60;;;;;;;25.20;68.58;100174.97;6588662;27;35788;-85
2022/08/23 09:16:13;;;;;;;5.25;4.30;;;;;;;25.44;65.22;100178.72;6567881;27;33635;-85
2022/08/23 09:19:21;;;;;;;5.18;4.32;;;;;;;25.80;61.29;100173.06;6566129;27;32464;-86
2022/08/23 09:22:34;;;;;;;9.15;4.97;;;;;;;25.74;62.13;100172.28;6589088;27;34887;-86
2022/08/23 09:25:51;;;;;;;5.80;4.55;;;;;;;25.44;61.96;100162.19;6568489;27;32643;-86
2022/08/23 09:29:10;;;;;;;10.00;4.22;;;;;;;25.13;64.02;100178.00;6565996;27;32576;-87
2022/08/23 09:32:31;;;;;;;6.03;4.40;;;;;;;25.33;64.57;100172.44;6560972;27;33657;-87
2022/08/23 09:35:34;;;;;;;5.85;3.40;;;;;;;25.17;64.51;100170.00;6584147;27;34466;-86
2022/08/23 09:38:48;;;;;;;5.65;4.50;;;;;;;25.19;65.72;100176.91;6561872;27;34024;-86
2022/08/23 09:41:53;;;;;;;6.90;4.72;;;;;;;25.21;65.67;100190.38;6582563;27;35011;-87
2022/08/23 09:44:56;;;;;;;11.25;5.20;;;;;;;25.10;68.14;100184.88;6584282;27;34150;-86
2022/08/23 09:47:59;;;;;;;5.18;3.97;;;;;;;25.05;68.16;100176.63;6590651;27;34714;-86
2022/08/23 09:51:16;;;;;;;6.07;4.37;;;;;;;25.15;66.04;100180.47;6571830;27;32792;-86
2022/08/23 09:54:24;;;;;;;5.25;3.85;;;;;;;25.43;63.10;100177.09;6584417;27;33978;-86
2022/08/23 09:57:31;;;;;;;7.10;4.80;;;;;;;25.59;62.85;100182.53;6582616;27;34987;-86
2022/08/23 10:00:35;;;;;;;6.72;4.28;;;;;;;25.47;64.30;100175.41;6582516;27;33848;-86
2022/08/23 10:03:41;;;;;;;7.93;4.22;;;;;;;25.25;66.52;100189.56;6564163;27;32618;-86
2022/08/23 10:06:47;;;;;;;5.95;3.70;;;;;;;25.22;65.13;100181.03;6585425;27;34284;-86
2022/08/23 10:09:53;;;;;;;5.05;3.47;;;;;;;25.26;63.08;100171.91;6587417;27;34190;-86
2022/08/23 10:12:57;;;;;;;6.03;4.40;;;;;;;25.02;64.32;100179.94;6548168;27;33085;-86
2022/08/23 10:16:10;;;;;;;6.40;3.67;;;;;;;25.06;65.23;100177.44;6569775;27;33022;-86
2022/08/23 10:19:39;;;;;;;6.97;4.82;;;;;;;25.61;65.01;100177.56;6588862;27;35006;-86
2022/08/23 10:22:54;;;;;;;4.85;4.00;;;;;;;25.74;60.82;100182.44;6586095;27;34449;-86
2022/08/23 10:25:58;;;;;;;6.10;3.87;;;;;;;25.92;63.64;100181.84;6565356;27;32855;-90
2022/08/23 10:29:39;;;;;;;5.28;3.83;;;;;;;25.79;63.41;100176.91;6546116;27;33493;-90
2022/08/23 10:32:46;;;;;;;7.00;4.18;;;;;;;25.67;63.34;100185.53;6562427;27;33117;-87
2022/08/23 10:36:05;;;;;;;6.78;4.25;;;;;;;25.37;62.54;100180.97;6584980;27;34033;-86
2022/08/23 10:39:17;;;;;;;6.47;4.00;;;;;;;25.18;65.38;100177.97;6565951;27;33839;-86
2022/08/23 10:42:59;;;;;;;5.18;3.90;;;;;;;25.18;64.62;100179.91;6568686;27;32343;-86
2022/08/23 10:46:06;;;;;;;5.00;4.00;;;;;;;25.48;64.14;100179.00;6565026;27;33521;-86
2022/08/23 10:49:12;;;;;;;5.43;3.70;;;;;;;25.79;61.57;100174.97;6586627;27;34087;-86
2022/08/23 10:52:21;;;;;;;5.68;3.67;;;;;;;26.15;61.88;100182.25;6565975;27;34617;-86
2022/08/23 10:55:42;;;;;;;5.32;3.83;;;;;;;26.36;59.27;100182.94;6567128;27;32820;-86
2022/08/23 10:59:17;;;;;;;3.95;3.53;;;;;;;26.28;58.60;100178.84;6587564;27;33951;-90
2022/08/23 11:02:48;;;;;;;6.55;3.00;;;;;;;26.43;58.36;100178.72;6588530;27;34336;-86
2022/08/23 11:06:40;;;;;;;3.92;3.15;;;;;;;26.79;56.42;100169.34;6586647;27;34444;-86
2022/08/23 11:10:24;;;;;;;6.35;3.87;;;;;;;26.89;56.89;100174.78;6587173;27;33885;-86
2022/08/23 11:13:30;;;;;;;5.32;3.30;;;;;;;26.66;58.96;100159.78;6562962;27;33534;-85
2022/08/23 11:16:34;;;;;;;3.10;2.80;;;;;;;26.65;55.05;100167.25;6585411;27;34305;-86
2022/08/23 11:19:54;;;;;;;3.58;2.92;;;;;;;26.73;57.23;100163.03;6564420;27;32969;-89
2022/08/23 11:23:01;;;;;;;4.35;2.80;;;;;;;27.97;55.21;100164.09;6563548;27;32624;-86
2022/08/23 11:26:08;;;;;;;3.33;2.83;;;;;;;29.42;48.92;100164.09;6584825;27;34500;-86
2022/08/23 11:29:23;;;;;;;3.83;3.10;;;;;;;30.37;45.22;100167.00;6565499;27;32819;-85
2022/08/23 11:32:38;;;;;;;7.07;3.53;;;;;;;31.10;45.72;100164.03;6585344;27;34328;-86
2022/08/23 11:35:48;;;;;;;5.97;3.12;;;;;;;30.33;43.94;100165.97;6583775;27;34729;-86
2022/08/23 11:38:56;;;;;;;6.05;2.85;;;;;;;30.66;43.50;100160.19;6586268;27;34193;-86
2022/08/23 11:42:03;;;;;;;2.95;2.53;;;;;;;31.53;42.52;100157.78;6567364;27;32734;-86
2022/08/23 11:45:41;;;;;;;4.68;2.62;;;;;;;32.72;39.13;100151.78;6569252;27;32776;-86
2022/08/23 11:48:56;;;;;;;4.65;2.33;;;;;;;34.19;36.32;100148.56;6566389;27;32826;-85
2022/08/23 11:52:49;;;;;;;2.42;2.22;;;;;;;32.60;37.17;100148.03;6587261;27;34196;-86
2022/08/23 11:55:52;;;;;;;4.72;2.45;;;;;;;32.69;38.11;100143.25;6569323;27;33916;-86
2022/08/23 11:59:14;;;;;;;3.40;2.12;;;;;;;32.37;40.17;100144.59;6585499;27;34867;-86
2022/08/23 12:02:38;;;;;;;3.03;2.65;;;;;;;33.15;38.19;100144.44;6567147;27;33475;-86
2022/08/23 12:06:01;;;;;;;2.58;2.37;;;;;;;33.31;38.22;100147.47;6565368;27;32179;-86
2022/08/23 12:09:11;;;;;;;2.40;2.20;;;;;;;31.86;39.76;100147.06;6567770;27;31825;-86
2022/08/23 12:12:30;;;;;;;2.37;1.87;;;;;;;32.90;37.88;100146.97;6589952;27;33552;-86
2022/08/23 12:16:29;;;;;;;4.78;2.33;;;;;;;32.06;38.46;100149.22;6589977;27;34729;-86
2022/08/23 12:19:41;;;;;;;4.25;2.60;;;;;;;30.72;43.46;100154.16;6562962;27;34125;-90
2022/08/23 12:56:35;;;;;;;3.83;3.08;;;;;;;27.79;51.61;100153.88;6616343;26;20040;-87
